createdAt,value
2023-08-08T00:01:15.506Z,97967.84
2023-08-08T00:03:42.356Z,97973.70
2023-08-08T00:06:09.273Z,97975.46
2023-08-08T00:08:37.768Z,97979.31
2023-08-08T00:11:04.581Z,97978.46
2023-08-08T00:13:31.395Z,97977.30
2023-08-08T00:15:58.349Z,97975.52
2023-08-08T00:18:25.225Z,97978.20
2023-08-08T00:20:51.972Z,97983.83
2023-08-08T00:23:18.710Z,97977.27
2023-08-08T00:25:50.950Z,97979.48
2023-08-08T00:28:18.784Z,97983.73
2023-08-08T00:30:46.225Z,97985.27
2023-08-08T00:33:13.138Z,97981.85
2023-08-08T00:35:39.941Z,97989.80
2023-08-08T00:38:06.723Z,97987.30
2023-08-08T00:40:33.863Z,97990.73
2023-08-08T00:43:00.632Z,97992.69
2023-08-08T00:45:27.911Z,97995.10
2023-08-08T00:47:54.879Z,97994.92
2023-08-08T00:50:22.536Z,97995.64
2023-08-08T00:52:50.456Z,97996.84
2023-08-08T00:55:17.698Z,98001.13
2023-08-08T00:57:44.756Z,98006.51
2023-08-08T01:00:12.642Z,98005.40
2023-08-08T01:02:40.129Z,98011.23
2023-08-08T01:05:09.128Z,98017.00
2023-08-08T01:07:55.141Z,98026.29
2023-08-08T01:10:27.654Z,98029.85
2023-08-08T01:13:03.870Z,98029.97
2023-08-08T01:15:36.715Z,98034.11
2023-08-08T01:18:08.621Z,98034.77
2023-08-08T01:20:36.251Z,98033.98
2023-08-08T01:23:15.211Z,98036.80
2023-08-08T01:25:42.597Z,98039.33
2023-08-08T01:28:09.862Z,98037.36
2023-08-08T01:30:36.704Z,98040.14
2023-08-08T01:33:04.576Z,98039.86
2023-08-08T01:35:35.954Z,98041.91
2023-08-08T01:38:15.116Z,98038.66
2023-08-08T01:40:44.017Z,98039.70
2023-08-08T01:43:11.576Z,98040.37
2023-08-08T01:45:39.586Z,98039.35
2023-08-08T01:48:10.667Z,98039.87
2023-08-08T01:50:38.630Z,98041.29
2023-08-08T01:53:05.543Z,98041.24
2023-08-08T01:55:32.540Z,98041.96
2023-08-08T01:57:59.770Z,98044.08
2023-08-08T02:00:26.616Z,98044.44
2023-08-08T02:02:54.133Z,98046.77
2023-08-08T02:05:21.131Z,98044.55
2023-08-08T02:07:47.965Z,98045.19
2023-08-08T02:10:14.763Z,98042.83
2023-08-08T02:12:41.535Z,98046.84
2023-08-08T02:15:08.861Z,98049.33
2023-08-08T02:17:35.633Z,98050.88
2023-08-08T02:20:02.450Z,98052.34
2023-08-08T02:22:29.260Z,98050.03
2023-08-08T02:24:55.982Z,98051.68
2023-08-08T02:27:22.876Z,98055.89
2023-08-08T02:29:49.793Z,98057.52
2023-08-08T02:32:16.550Z,98060.65
2023-08-08T02:34:43.558Z,98064.27
2023-08-08T02:37:10.271Z,98066.27
2023-08-08T02:39:37.088Z,98063.94
2023-08-08T02:42:04.182Z,98070.13
2023-08-08T02:44:30.907Z,98072.61
2023-08-08T02:46:57.858Z,98071.35
2023-08-08T02:49:24.693Z,98068.80
2023-08-08T02:51:51.411Z,98076.00
2023-08-08T02:54:18.158Z,98076.77
2023-08-08T02:56:44.954Z,98079.63
2023-08-08T02:59:11.748Z,98080.25
2023-08-08T03:01:40.621Z,98082.94
2023-08-08T03:04:07.787Z,98087.56
2023-08-08T03:06:34.534Z,98090.74
2023-08-08T03:09:01.296Z,98093.84
2023-08-08T03:11:28.176Z,98093.80
2023-08-08T03:13:54.918Z,98091.63
2023-08-08T03:16:21.772Z,98097.45
2023-08-08T03:18:48.597Z,98099.17
2023-08-08T03:21:15.392Z,98101.41
2023-08-08T03:23:42.115Z,98101.81
2023-08-08T03:26:08.896Z,98110.52
2023-08-08T03:28:35.618Z,98111.27
2023-08-08T03:31:04.395Z,98112.89
2023-08-08T03:33:31.201Z,98118.76
2023-08-08T03:35:57.900Z,98121.20
2023-08-08T03:38:24.670Z,98119.23
2023-08-08T03:40:52.386Z,98120.11
2023-08-08T03:43:19.121Z,98122.34
2023-08-08T03:48:27.377Z,98135.54
2023-08-08T03:50:54.139Z,98138.23
2023-08-08T03:53:20.829Z,98147.42
2023-08-08T03:55:47.698Z,98148.74
2023-08-08T03:58:14.443Z,98155.00
2023-08-08T04:00:47.561Z,98153.83
2023-08-08T04:03:18.633Z,98155.52
2023-08-08T04:05:49.832Z,98160.52
2023-08-08T04:08:17.217Z,98165.59
2023-08-08T04:10:48.026Z,98167.95
2023-08-08T04:13:14.840Z,98169.04
2023-08-08T04:15:41.993Z,98172.08
2023-08-08T04:18:08.829Z,98171.42
2023-08-08T04:20:35.929Z,98176.59
2023-08-08T04:23:02.824Z,98177.86
2023-08-08T04:25:30.079Z,98182.60
2023-08-08T04:27:56.874Z,98184.54
2023-08-08T04:30:24.993Z,98187.47
2023-08-08T04:32:52.157Z,98191.84
2023-08-08T04:35:19.081Z,98194.05
2023-08-08T04:37:45.981Z,98204.34
2023-08-08T04:40:13.079Z,98205.40
2023-08-08T04:42:40.563Z,98205.35
2023-08-08T04:45:08.466Z,98206.30
2023-08-08T04:47:35.326Z,98208.22
2023-08-08T04:50:02.436Z,98206.73
2023-08-08T04:52:29.537Z,98211.73
2023-08-08T04:54:56.328Z,98212.02
2023-08-08T04:57:23.165Z,98211.45
2023-08-08T04:59:50.436Z,98220.85
2023-08-08T05:02:17.690Z,98223.70
2023-08-08T05:04:44.523Z,98228.13
2023-08-08T05:07:11.511Z,98231.52
2023-08-08T05:09:38.316Z,98233.27
2023-08-08T05:12:06.002Z,98232.11
2023-08-08T05:14:33.484Z,98235.31
2023-08-08T05:17:00.584Z,98236.88
2023-08-08T05:19:27.375Z,98240.51
2023-08-08T05:21:54.617Z,98243.42
2023-08-08T05:24:21.411Z,98247.65
2023-08-08T05:26:48.237Z,98253.37
2023-08-08T05:29:18.478Z,98257.08
2023-08-08T05:31:45.281Z,98257.41
2023-08-08T05:34:12.062Z,98256.59
2023-08-08T05:36:38.905Z,98260.23
2023-08-08T05:39:05.642Z,98265.36
2023-08-08T05:41:32.436Z,98270.69
2023-08-08T05:43:59.226Z,98270.14
2023-08-08T05:46:26.109Z,98271.21
2023-08-08T05:48:53.141Z,98268.81
2023-08-08T05:51:19.925Z,98264.80
2023-08-08T05:53:46.686Z,98266.15
2023-08-08T05:56:13.508Z,98269.15
2023-08-08T05:58:40.402Z,98272.33
2023-08-08T06:01:10.498Z,98273.54
2023-08-08T06:03:39.169Z,98275.79
2023-08-08T06:06:07.561Z,98269.65
2023-08-08T06:08:35.610Z,98274.32
2023-08-08T06:11:02.453Z,98269.72
2023-08-08T06:13:29.293Z,98268.89
2023-08-08T06:15:56.230Z,98266.85
2023-08-08T06:18:23.060Z,98264.20
2023-08-08T06:20:49.865Z,98265.40
2023-08-08T06:23:16.709Z,98262.45
2023-08-08T06:25:43.734Z,98265.27
2023-08-08T06:28:11.133Z,98264.65
2023-08-08T06:30:38.190Z,98258.46
2023-08-08T06:33:05.329Z,98258.23
2023-08-08T06:35:32.094Z,98259.09
2023-08-08T06:37:58.917Z,98255.58
2023-08-08T06:40:25.843Z,98256.95
2023-08-08T06:42:52.714Z,98251.21
2023-08-08T06:45:20.207Z,98254.94
2023-08-08T06:47:47.663Z,98255.44
2023-08-08T06:50:14.471Z,98249.81
2023-08-08T06:52:41.783Z,98254.48
2023-08-08T06:55:09.145Z,98254.60
2023-08-08T06:57:36.851Z,98254.42
2023-08-08T07:00:06.639Z,98251.02
2023-08-08T07:02:33.686Z,98248.30
2023-08-08T07:05:00.689Z,98254.96
2023-08-08T07:07:27.663Z,98250.05
2023-08-08T07:09:54.498Z,98249.23
2023-08-08T07:12:21.721Z,98253.71
2023-08-08T07:14:48.724Z,98252.19
2023-08-08T07:17:15.987Z,98253.10
2023-08-08T07:19:43.028Z,98250.66
2023-08-08T07:22:10.167Z,98252.25
2023-08-08T07:24:37.252Z,98246.08
2023-08-08T07:27:04.646Z,98250.31
2023-08-08T07:29:32.179Z,98252.20
2023-08-08T07:31:59.884Z,98252.96
2023-08-08T07:34:27.217Z,98254.63
2023-08-08T07:36:54.006Z,98252.16
2023-08-08T07:39:21.370Z,98249.06
2023-08-08T07:41:48.412Z,98246.48
2023-08-08T07:44:15.521Z,98247.42
2023-08-08T07:46:42.898Z,98247.83
2023-08-08T07:49:10.734Z,98246.02
2023-08-08T07:51:37.816Z,98240.16
2023-08-08T07:54:06.820Z,98239.16
2023-08-08T07:56:33.622Z,98236.50
2023-08-08T07:59:01.027Z,98238.70
2023-08-08T08:01:28.701Z,98237.26
2023-08-08T08:03:55.901Z,98235.58
2023-08-08T08:06:23.015Z,98235.19
2023-08-08T08:08:49.785Z,98229.98
2023-08-08T08:11:18.164Z,98231.78
2023-08-08T08:13:45.147Z,98231.47
2023-08-08T08:16:12.132Z,98234.59
2023-08-08T08:18:38.974Z,98237.07
2023-08-08T08:21:06.354Z,98237.37
2023-08-08T08:23:33.732Z,98231.71
2023-08-08T08:26:01.214Z,98228.89
2023-08-08T08:28:28.222Z,98236.16
2023-08-08T08:30:55.452Z,98234.77
2023-08-08T08:33:22.620Z,98239.88
2023-08-08T08:35:49.651Z,98242.77
2023-08-08T08:38:16.737Z,98236.85
2023-08-08T08:40:47.361Z,98242.92
2023-08-08T08:43:15.182Z,98244.64
2023-08-08T08:45:44.793Z,98245.84
2023-08-08T08:48:12.983Z,98241.09
2023-08-08T08:50:41.034Z,98237.33
2023-08-08T08:53:08.517Z,98237.05
2023-08-08T08:55:35.588Z,98236.79
2023-08-08T08:58:03.276Z,98239.38
2023-08-08T09:00:32.236Z,98237.31
2023-08-08T09:02:59.970Z,98243.48
2023-08-08T09:05:28.085Z,98244.98
2023-08-08T09:07:55.267Z,98244.05
2023-08-08T09:10:23.037Z,98237.73
2023-08-08T09:12:50.710Z,98236.80
2023-08-08T09:15:17.854Z,98236.23
2023-08-08T09:17:49.349Z,98233.77
2023-08-08T09:20:18.587Z,98233.65
2023-08-08T09:22:45.987Z,98234.25
2023-08-08T09:25:13.431Z,98231.77
2023-08-08T09:27:43.104Z,98233.10
2023-08-08T09:30:11.723Z,98232.10
2023-08-08T09:32:39.158Z,98232.20
2023-08-08T09:35:10.952Z,98239.19
2023-08-08T09:37:39.647Z,98238.89
2023-08-08T09:40:09.487Z,98239.84
2023-08-08T09:42:37.622Z,98242.09
2023-08-08T09:45:05.206Z,98239.91
2023-08-08T09:47:32.787Z,98237.71
2023-08-08T09:50:07.516Z,98235.78
2023-08-08T09:52:35.733Z,98228.58
2023-08-08T09:55:03.592Z,98222.77
2023-08-08T09:57:31.583Z,98218.58
2023-08-08T09:59:59.118Z,98218.77
2023-08-08T10:02:26.584Z,98216.48
2023-08-08T10:04:56.656Z,98214.71
2023-08-08T10:07:24.302Z,98215.34
2023-08-08T10:09:51.333Z,98218.20
2023-08-08T10:12:18.939Z,98220.42
2023-08-08T10:14:46.559Z,98217.69
2023-08-08T10:17:17.097Z,98214.16
2023-08-08T10:19:56.228Z,98213.06
2023-08-08T10:22:25.343Z,98212.10
2023-08-08T10:24:55.072Z,98212.86
2023-08-08T10:27:37.685Z,98207.68
2023-08-08T10:30:13.684Z,98209.84
2023-08-08T10:32:45.214Z,98207.81
2023-08-08T10:35:13.613Z,98209.70
2023-08-08T10:37:41.530Z,98205.34
2023-08-08T10:40:09.848Z,98203.70
2023-08-08T10:42:44.883Z,98204.08
2023-08-08T10:45:15.336Z,98200.78
2023-08-08T10:47:43.188Z,98202.23
2023-08-08T10:50:23.068Z,98213.39
2023-08-08T10:52:55.575Z,98214.77
2023-08-08T10:55:25.623Z,98214.99
2023-08-08T10:57:57.505Z,98206.47
2023-08-08T11:00:29.086Z,98206.33
2023-08-08T11:02:57.164Z,98210.59
2023-08-08T11:05:25.114Z,98204.38
2023-08-08T11:07:52.291Z,98208.46
2023-08-08T11:10:19.894Z,98209.86
2023-08-08T11:13:02.796Z,98204.60
2023-08-08T11:15:30.677Z,98208.27
2023-08-08T11:17:58.854Z,98204.66
2023-08-08T11:20:26.683Z,98198.37
2023-08-08T11:22:55.693Z,98198.90
2023-08-08T11:25:23.802Z,98199.98
2023-08-08T11:27:52.615Z,98195.38
2023-08-08T11:30:20.971Z,98196.01
2023-08-08T11:33:15.208Z,98200.83
2023-08-08T11:35:36.382Z,98196.52
2023-08-08T11:38:05.758Z,98193.38
2023-08-08T11:40:33.468Z,98199.65
2023-08-08T11:43:01.383Z,98197.94
2023-08-08T11:45:28.607Z,98195.35
2023-08-08T11:47:57.103Z,98194.70
2023-08-08T11:50:26.710Z,98192.21
2023-08-08T11:52:55.425Z,98196.64
2023-08-08T11:55:28.626Z,98196.45
2023-08-08T11:58:03.630Z,98199.34
2023-08-08T12:00:35.359Z,98197.89
2023-08-08T12:03:05.852Z,98199.61
2023-08-08T12:05:39.505Z,98206.32
2023-08-08T12:08:08.229Z,98212.28
2023-08-08T12:10:35.287Z,98219.77
2023-08-08T12:13:02.764Z,98226.67
2023-08-08T12:15:37.263Z,98237.30
2023-08-08T12:18:05.246Z,98238.61
2023-08-08T12:20:33.353Z,98229.92
2023-08-08T12:23:01.373Z,98226.98
2023-08-08T12:25:28.869Z,98229.05
2023-08-08T12:27:56.082Z,98231.41
2023-08-08T12:30:24.967Z,98244.48
2023-08-08T12:32:52.197Z,98263.96
2023-08-08T12:35:19.216Z,98295.84
2023-08-08T12:37:46.324Z,98306.38
2023-08-08T12:40:13.843Z,98292.45
2023-08-08T12:42:40.865Z,98291.34
2023-08-08T12:45:09.455Z,98283.09
2023-08-08T12:47:38.837Z,98279.48
2023-08-08T12:50:06.992Z,98270.70
2023-08-08T12:52:34.044Z,98269.80
2023-08-08T12:55:01.386Z,98259.73
2023-08-08T12:57:28.402Z,98255.86
2023-08-08T12:59:55.993Z,98252.00
2023-08-08T13:02:23.198Z,98247.59
2023-08-08T13:04:50.269Z,98245.27
2023-08-08T13:07:18.069Z,98246.29
2023-08-08T13:09:44.968Z,98239.39
2023-08-08T13:12:11.941Z,98244.02
2023-08-08T13:14:38.966Z,98240.52
2023-08-08T13:17:06.026Z,98238.41
2023-08-08T13:19:33.035Z,98237.56
2023-08-08T13:22:01.178Z,98232.67
2023-08-08T13:24:28.499Z,98233.14
2023-08-08T13:26:55.570Z,98229.88
2023-08-08T13:29:22.622Z,98230.89
2023-08-08T13:31:49.662Z,98227.77
2023-08-08T13:34:16.646Z,98233.85
2023-08-08T13:36:44.033Z,98234.10
2023-08-08T13:39:11.647Z,98231.59
2023-08-08T13:44:22.026Z,98221.77
2023-08-08T13:46:49.024Z,98215.45
2023-08-08T13:49:16.037Z,98213.73
2023-08-08T13:51:44.658Z,98212.17
2023-08-08T13:54:13.233Z,98213.35
2023-08-08T13:56:40.265Z,98215.61
2023-08-08T13:59:07.249Z,98218.65
2023-08-08T14:01:34.313Z,98217.71
2023-08-08T14:04:01.499Z,98217.48
2023-08-08T14:06:30.135Z,98216.14
2023-08-08T14:08:57.097Z,98220.44
2023-08-08T14:11:25.143Z,98222.77
2023-08-08T14:13:52.106Z,98229.56
2023-08-08T14:16:19.295Z,98226.84
2023-08-08T14:18:46.530Z,98223.95
2023-08-08T14:21:13.554Z,98229.02
2023-08-08T14:23:40.573Z,98232.54
2023-08-08T14:26:07.615Z,98236.75
2023-08-08T14:28:34.622Z,98236.44
2023-08-08T14:31:03.388Z,98235.83
2023-08-08T14:33:30.353Z,98239.88
2023-08-08T14:35:57.313Z,98237.46
2023-08-08T14:38:26.652Z,98238.87
2023-08-08T14:40:56.395Z,98238.69
2023-08-08T14:43:24.762Z,98236.98
2023-08-08T14:45:51.836Z,98237.22
2023-08-08T14:48:18.895Z,98243.20
2023-08-08T14:50:49.419Z,98241.33
2023-08-08T14:53:16.526Z,98240.83
2023-08-08T14:55:43.518Z,98239.58
2023-08-08T14:58:10.566Z,98233.17
2023-08-08T15:00:37.612Z,98234.04
2023-08-08T15:03:07.974Z,98235.99
2023-08-08T15:05:34.860Z,98231.70
2023-08-08T15:08:01.642Z,98228.81
2023-08-08T15:10:28.719Z,98225.16
2023-08-08T15:12:55.668Z,98226.80
2023-08-08T15:15:24.525Z,98219.41
2023-08-08T15:17:51.582Z,98223.95
2023-08-08T15:20:18.433Z,98226.98
2023-08-08T15:22:45.245Z,98232.99
2023-08-08T15:25:12.184Z,98229.80
2023-08-08T15:27:39.137Z,98237.67
2023-08-08T15:30:06.941Z,98238.92
2023-08-08T15:32:33.880Z,98240.64
2023-08-08T15:35:00.667Z,98236.83
2023-08-08T15:37:27.682Z,98236.97
2023-08-08T15:39:54.613Z,98234.70
2023-08-08T15:42:21.456Z,98236.19
2023-08-08T15:44:48.244Z,98234.23
2023-08-08T15:47:15.240Z,98235.33
2023-08-08T15:49:42.089Z,98234.07
2023-08-08T15:52:08.937Z,98235.48
2023-08-08T15:54:36.124Z,98238.95
2023-08-08T15:57:03.743Z,98238.95
2023-08-08T15:59:32.376Z,98240.98
2023-08-08T16:01:59.148Z,98239.27
2023-08-08T16:04:26.269Z,98239.90
2023-08-08T16:06:53.217Z,98242.54
2023-08-08T16:09:19.993Z,98240.20
2023-08-08T16:11:46.843Z,98238.02
2023-08-08T16:14:13.996Z,98237.94
2023-08-08T16:16:41.938Z,98238.41
2023-08-08T16:19:09.336Z,98241.21
2023-08-08T16:21:36.347Z,98241.36
2023-08-08T16:24:03.960Z,98242.21
2023-08-08T16:26:30.824Z,98240.51
2023-08-08T16:28:58.258Z,98238.25
2023-08-08T16:31:25.189Z,98236.53
2023-08-08T16:33:52.269Z,98238.70
2023-08-08T16:36:19.073Z,98235.98
2023-08-08T16:38:45.834Z,98239.34
2023-08-08T16:41:13.117Z,98241.67
2023-08-08T16:43:40.086Z,98244.95
2023-08-08T16:46:07.126Z,98245.64
2023-08-08T16:48:34.154Z,98242.41
2023-08-08T16:51:01.260Z,98241.61
2023-08-08T16:53:28.067Z,98245.87
2023-08-08T16:55:55.042Z,98243.44
2023-08-08T16:58:22.138Z,98241.00
2023-08-08T17:00:49.216Z,98245.26
2023-08-08T17:03:17.942Z,98245.69
2023-08-08T17:05:45.025Z,98244.95
2023-08-08T17:08:11.832Z,98242.11
2023-08-08T17:10:40.751Z,98243.55
2023-08-08T17:13:07.565Z,98240.70
2023-08-08T17:15:34.277Z,98240.11
2023-08-08T17:18:01.738Z,98237.38
2023-08-08T17:20:28.793Z,98233.27
2023-08-08T17:22:55.949Z,98229.34
2023-08-08T17:25:23.085Z,98235.25
2023-08-08T17:27:50.256Z,98235.42
2023-08-08T17:30:17.290Z,98240.34
2023-08-08T17:35:29.058Z,98248.64
2023-08-08T17:37:56.364Z,98255.23
2023-08-08T17:40:23.413Z,98258.37
2023-08-08T17:42:50.426Z,98259.57
2023-08-08T17:45:17.542Z,98259.29
2023-08-08T17:47:44.374Z,98264.91
2023-08-08T17:50:11.272Z,98260.75
2023-08-08T17:52:38.139Z,98264.20
2023-08-08T17:55:06.680Z,98261.52
2023-08-08T17:57:33.728Z,98264.48
2023-08-08T18:00:00.903Z,98264.33
2023-08-08T18:02:27.908Z,98266.42
2023-08-08T18:04:54.939Z,98270.50
2023-08-08T18:07:22.765Z,98270.10
2023-08-08T18:09:51.350Z,98277.76
2023-08-08T18:12:18.867Z,98275.06
2023-08-08T18:14:45.878Z,98274.34
2023-08-08T18:17:12.622Z,98274.92
2023-08-08T18:19:39.663Z,98277.83
2023-08-08T18:22:07.507Z,98278.43
2023-08-08T18:24:34.600Z,98283.11
2023-08-08T18:27:01.675Z,98286.13
2023-08-08T18:29:28.706Z,98282.81
2023-08-08T18:31:55.624Z,98287.88
2023-08-08T18:34:22.754Z,98282.10
2023-08-08T18:36:49.731Z,98283.02
2023-08-08T18:39:16.579Z,98284.51
2023-08-08T18:41:43.335Z,98286.94
2023-08-08T18:44:10.287Z,98288.06
2023-08-08T18:46:37.360Z,98289.17
2023-08-08T18:49:04.641Z,98292.14
2023-08-08T18:51:31.702Z,98298.96
2023-08-08T18:53:58.593Z,98300.09
2023-08-08T18:56:25.742Z,98296.27
2023-08-08T18:58:52.723Z,98294.34
2023-08-08T19:01:19.505Z,98292.70
2023-08-08T19:03:47.252Z,98295.31
2023-08-08T19:06:14.344Z,98290.42
2023-08-08T19:08:42.131Z,98292.38
2023-08-08T19:11:08.971Z,98291.66
2023-08-08T19:13:36.018Z,98294.58
2023-08-08T19:16:03.036Z,98291.04
2023-08-08T19:18:29.930Z,98290.81
2023-08-08T19:20:56.735Z,98290.81
2023-08-08T19:23:23.754Z,98289.38
2023-08-08T19:25:50.819Z,98286.38
2023-08-08T19:28:17.803Z,98284.17
2023-08-08T19:30:44.863Z,98281.47
2023-08-08T19:33:11.840Z,98282.80
2023-08-08T19:35:38.857Z,98276.98
2023-08-08T19:38:05.615Z,98279.11
2023-08-08T19:40:33.703Z,98275.80
2023-08-08T19:43:00.877Z,98280.33
2023-08-08T19:45:27.888Z,98279.58
2023-08-08T19:47:54.911Z,98276.82
2023-08-08T19:50:22.422Z,98276.66
2023-08-08T19:52:49.635Z,98275.05
2023-08-08T19:55:16.705Z,98273.45
2023-08-08T19:57:43.656Z,98271.27
2023-08-08T20:00:11.172Z,98272.70
2023-08-08T20:02:38.219Z,98272.29
2023-08-08T20:05:05.509Z,98273.28
2023-08-08T20:07:32.663Z,98271.33
2023-08-08T20:10:00.032Z,98274.52
2023-08-08T20:12:27.000Z,98275.79
2023-08-08T20:14:54.557Z,98273.56
2023-08-08T20:17:21.486Z,98269.13
2023-08-08T20:19:48.455Z,98271.77
2023-08-08T20:22:15.676Z,98270.53
2023-08-08T20:24:42.510Z,98266.70
2023-08-08T20:27:09.507Z,98269.41
2023-08-08T20:29:37.640Z,98269.23
2023-08-08T20:32:05.132Z,98268.40
2023-08-08T20:34:32.314Z,98267.50
2023-08-08T20:36:59.793Z,98267.98
2023-08-08T20:39:27.006Z,98263.75
2023-08-08T20:41:55.922Z,98257.65
2023-08-08T20:44:23.675Z,98259.21
2023-08-08T20:46:50.604Z,98260.38
2023-08-08T20:49:17.588Z,98261.85
2023-08-08T20:51:46.517Z,98265.20
2023-08-08T20:54:13.522Z,98265.76
2023-08-08T20:56:40.994Z,98260.33
2023-08-08T20:59:07.969Z,98258.00
2023-08-08T21:01:35.009Z,98254.25
2023-08-08T21:04:02.081Z,98253.59
2023-08-08T21:06:29.123Z,98251.41
2023-08-08T21:08:56.078Z,98252.61
2023-08-08T21:11:23.079Z,98252.82
2023-08-08T21:13:50.195Z,98252.38
2023-08-08T21:16:17.133Z,98248.08
2023-08-08T21:18:44.092Z,98248.42
2023-08-08T21:21:11.078Z,98253.52
2023-08-08T21:23:38.041Z,98246.20
2023-08-08T21:26:05.023Z,98245.99
2023-08-08T21:28:32.603Z,98244.05
2023-08-08T21:30:59.691Z,98245.51
2023-08-08T21:33:26.789Z,98244.91
2023-08-08T21:35:53.847Z,98247.00
2023-08-08T21:38:20.812Z,98248.80
2023-08-08T21:40:47.814Z,98251.50
2023-08-08T21:43:15.041Z,98248.69
2023-08-08T21:45:43.053Z,98250.48
2023-08-08T21:48:10.121Z,98243.95
2023-08-08T21:50:36.915Z,98239.20
2023-08-08T21:53:03.982Z,98236.48
2023-08-08T21:55:30.893Z,98235.98
2023-08-08T21:57:57.997Z,98233.45
2023-08-08T22:00:25.564Z,98237.73
2023-08-08T22:02:52.644Z,98235.14
2023-08-08T22:05:19.674Z,98236.48
2023-08-08T22:07:46.765Z,98238.71
2023-08-08T22:10:13.727Z,98242.80
2023-08-08T22:12:40.692Z,98245.22
2023-08-08T22:15:08.756Z,98249.13
2023-08-08T22:17:35.748Z,98252.30
2023-08-08T22:20:02.698Z,98260.58
2023-08-08T22:22:29.721Z,98259.35
2023-08-08T22:24:56.746Z,98266.19
2023-08-08T22:27:23.780Z,98276.89
2023-08-08T22:29:50.766Z,98283.08
2023-08-08T22:32:17.750Z,98301.42
2023-08-08T22:34:44.744Z,98326.34
2023-08-08T22:37:11.692Z,98331.70
2023-08-08T22:39:38.724Z,98321.67
2023-08-08T22:42:05.811Z,98308.49
2023-08-08T22:44:32.990Z,98298.52
2023-08-08T22:47:00.274Z,98304.74
2023-08-08T22:49:27.681Z,98306.05
2023-08-08T22:51:54.698Z,98305.55
2023-08-08T22:54:21.599Z,98312.15
2023-08-08T22:56:48.587Z,98315.16
2023-08-08T22:59:15.643Z,98309.02
2023-08-08T23:01:42.618Z,98287.29
2023-08-08T23:04:09.590Z,98286.08
2023-08-08T23:06:36.557Z,98288.84
2023-08-08T23:09:03.507Z,98281.86
2023-08-08T23:11:30.462Z,98277.34
2023-08-08T23:13:57.610Z,98274.24
2023-08-08T23:16:24.650Z,98271.04
2023-08-08T23:18:51.602Z,98267.02
2023-08-08T23:21:19.400Z,98276.79
2023-08-08T23:23:46.365Z,98289.83
2023-08-08T23:26:13.320Z,98306.02
2023-08-08T23:28:40.280Z,98319.25
2023-08-08T23:31:07.221Z,98317.77
2023-08-08T23:33:34.134Z,98314.52
2023-08-08T23:36:01.069Z,98318.04
2023-08-08T23:38:28.031Z,98311.09
2023-08-08T23:40:54.962Z,98302.59
2023-08-08T23:43:21.978Z,98291.45
2023-08-08T23:45:49.362Z,98283.16
2023-08-08T23:48:16.449Z,98280.75
2023-08-08T23:50:43.742Z,98272.31
2023-08-08T23:53:10.692Z,98271.89
2023-08-08T23:55:37.614Z,98280.27
2023-08-08T23:58:04.665Z,98280.05
